createdAt,value
2019-04-28T00:01:11.281Z,12.60
2019-04-28T00:03:41.854Z,12.60
2019-04-28T00:06:11.033Z,12.60
2019-04-28T00:08:40.050Z,12.60
2019-04-28T00:11:08.516Z,12.60
2019-04-28T00:13:37.054Z,12.50
2019-04-28T00:16:07.359Z,12.60
2019-04-28T00:18:36.039Z,12.50
2019-04-28T00:21:22.176Z,12.50
2019-04-28T00:23:52.275Z,12.50
2019-04-28T00:26:40.825Z,12.50
2019-04-28T00:29:10.978Z,12.50
2019-04-28T00:31:41.183Z,12.50
2019-04-28T00:34:11.289Z,12.40
2019-04-28T00:36:41.241Z,12.50
2019-04-28T00:39:11.109Z,12.50
2019-04-28T00:41:42.075Z,12.40
2019-04-28T00:44:11.925Z,12.40
2019-04-28T00:46:42.570Z,12.40
2019-04-28T00:49:11.885Z,12.40
2019-04-28T00:52:00.700Z,12.40
2019-04-28T00:54:31.675Z,12.50
2019-04-28T00:57:01.480Z,12.50
2019-04-28T00:59:31.589Z,12.40
2019-04-28T01:02:01.826Z,12.50
2019-04-28T01:04:31.039Z,12.40
2019-04-28T01:07:01.625Z,12.40
2019-04-28T01:09:31.581Z,12.30
2019-04-28T01:12:01.783Z,12.30
2019-04-28T01:14:31.015Z,12.30
2019-04-28T01:17:20.725Z,12.30
2019-04-28T01:19:51.433Z,12.30
2019-04-28T01:22:20.251Z,12.30
2019-04-28T01:24:49.716Z,12.20
2019-04-28T01:27:23.025Z,12.20
2019-04-28T01:29:51.743Z,12.20
2019-04-28T01:32:23.312Z,12.20
2019-04-28T01:34:51.857Z,12.20
2019-04-28T01:37:20.410Z,12.20
2019-04-28T01:39:49.610Z,12.20
2019-04-28T01:42:20.272Z,12.20
2019-04-28T01:44:49.502Z,12.20
2019-04-28T01:47:18.314Z,12.20
2019-04-28T01:49:46.848Z,12.20
2019-04-28T01:52:15.395Z,12.20
2019-04-28T01:54:43.955Z,12.20
2019-04-28T01:57:12.672Z,12.10
2019-04-28T01:59:41.203Z,12.10
2019-04-28T02:02:10.353Z,12.10
2019-04-28T02:04:40.221Z,12.10
2019-04-28T02:07:10.899Z,12.10
2019-04-28T02:09:39.597Z,12.00
2019-04-28T02:12:10.525Z,12.00
2019-04-28T02:14:40.438Z,12.00
2019-04-28T02:17:10.513Z,12.00
2019-04-28T02:19:40.921Z,12.00
2019-04-28T02:22:11.330Z,12.00
2019-04-28T02:24:40.526Z,11.90
2019-04-28T02:27:10.572Z,11.90
2019-04-28T02:29:41.460Z,12.00
2019-04-28T02:32:11.513Z,12.00
2019-04-28T02:34:41.091Z,11.90
2019-04-28T02:37:11.353Z,12.00
2019-04-28T02:39:40.950Z,12.00
2019-04-28T02:42:10.935Z,12.00
2019-04-28T02:45:00.461Z,12.00
2019-04-28T02:47:31.548Z,12.00
2019-04-28T02:53:14.246Z,12.00
2019-04-28T02:55:42.775Z,11.90
2019-04-28T02:58:13.323Z,11.90
2019-04-28T03:01:00.354Z,11.90
2019-04-28T03:03:11.807Z,11.90
2019-04-28T03:05:41.233Z,11.80
2019-04-28T03:08:11.183Z,11.80
2019-04-28T03:10:40.964Z,11.80
2019-04-28T03:13:10.854Z,11.80
2019-04-28T03:16:01.585Z,11.80
2019-04-28T03:18:31.682Z,11.90
2019-04-28T03:21:03.608Z,11.80
2019-04-28T03:23:31.350Z,11.80
2019-04-28T03:26:04.603Z,11.90
2019-04-28T03:28:34.777Z,11.80
2019-04-28T03:31:40.559Z,11.80
2019-04-28T03:33:43.565Z,11.80
2019-04-28T03:36:10.290Z,11.70
2019-04-28T03:38:40.479Z,11.70
2019-04-28T03:41:10.939Z,11.70
2019-04-28T03:43:40.626Z,11.70
2019-04-28T03:46:16.171Z,11.60
2019-04-28T03:48:44.704Z,11.60
2019-04-28T03:51:13.558Z,11.60
2019-04-28T03:53:42.314Z,11.60
2019-04-28T03:56:11.426Z,11.60
2019-04-28T03:58:40.742Z,11.60
2019-04-28T04:01:10.775Z,11.50
2019-04-28T04:03:41.685Z,11.50
2019-04-28T04:06:31.120Z,11.50
2019-04-28T04:09:00.295Z,11.50
2019-04-28T04:11:33.688Z,11.50
2019-04-28T04:14:03.789Z,11.50
2019-04-28T04:16:36.645Z,11.50
2019-04-28T04:19:06.765Z,11.40
2019-04-28T04:21:35.679Z,11.50
2019-04-28T04:24:04.195Z,11.50
2019-04-28T04:26:33.530Z,11.50
2019-04-28T04:29:02.299Z,11.50
2019-04-28T04:31:31.767Z,11.50
2019-04-28T04:34:03.079Z,11.50
2019-04-28T04:36:31.127Z,11.50
2019-04-28T04:39:01.772Z,11.50
2019-04-28T04:41:30.634Z,11.50
2019-04-28T04:44:01.184Z,11.50
2019-04-28T04:46:31.434Z,11.50
2019-04-28T04:49:00.637Z,11.50
2019-04-28T04:51:30.847Z,11.50
2019-04-28T04:54:01.218Z,11.50
2019-04-28T04:56:30.328Z,11.50
2019-04-28T04:59:00.390Z,11.50
2019-04-28T05:01:36.256Z,11.50
2019-04-28T05:04:06.477Z,11.50
2019-04-28T05:06:39.790Z,11.50
2019-04-28T05:09:10.327Z,11.50
2019-04-28T05:11:40.053Z,11.50
2019-04-28T05:14:11.523Z,11.40
2019-04-28T05:16:39.998Z,11.50
2019-04-28T05:19:10.079Z,11.50
2019-04-28T05:21:40.228Z,11.40
2019-04-28T05:24:26.694Z,11.40
2019-04-28T05:26:55.150Z,11.40
2019-04-28T05:29:26.761Z,11.40
2019-04-28T05:31:54.799Z,11.40
2019-04-28T05:34:24.691Z,11.50
2019-04-28T05:36:53.456Z,11.50
2019-04-28T05:39:21.919Z,11.50
2019-04-28T05:41:50.603Z,11.60
2019-04-28T05:44:20.178Z,11.60
2019-04-28T05:46:50.586Z,11.60
2019-04-28T05:49:39.569Z,11.80
2019-04-28T05:52:12.163Z,11.80
2019-04-28T05:54:54.101Z,11.90
2019-04-28T05:57:30.580Z,12.00
2019-04-28T06:00:03.814Z,12.00
2019-04-28T06:02:37.030Z,12.10
2019-04-28T06:05:06.224Z,12.10
2019-04-28T06:07:36.398Z,12.10
2019-04-28T06:10:06.726Z,12.20
2019-04-28T06:12:35.333Z,12.30
2019-04-28T06:15:06.008Z,12.30
2019-04-28T06:17:34.566Z,12.20
2019-04-28T06:20:03.893Z,12.20
2019-04-28T06:22:32.361Z,12.10
2019-04-28T06:25:00.817Z,12.10
2019-04-28T06:27:29.278Z,12.00
2019-04-28T06:29:57.773Z,12.00
2019-04-28T06:32:26.306Z,12.00
2019-04-28T06:34:54.839Z,12.10
2019-04-28T06:37:23.330Z,12.10
2019-04-28T06:39:51.945Z,12.20
2019-04-28T06:42:20.467Z,12.20
2019-04-28T06:44:48.960Z,12.30
2019-04-28T06:47:17.531Z,12.30
2019-04-28T06:49:46.043Z,12.30
2019-04-28T06:52:14.522Z,12.30
2019-04-28T06:54:43.041Z,12.30
2019-04-28T06:57:11.624Z,12.30
2019-04-28T06:59:40.114Z,12.30
2019-04-28T07:02:08.607Z,12.30
2019-04-28T07:04:37.057Z,12.30
2019-04-28T07:07:05.712Z,12.30
2019-04-28T07:09:34.345Z,12.20
2019-04-28T07:12:02.815Z,12.20
2019-04-28T07:14:31.278Z,12.20
2019-04-28T07:16:59.733Z,12.20
2019-04-28T07:19:28.204Z,12.20
2019-04-28T07:22:10.320Z,12.20
2019-04-28T07:24:38.777Z,12.20
2019-04-28T07:27:08.039Z,12.20
2019-04-28T07:29:36.744Z,12.30
2019-04-28T07:32:05.475Z,12.30
2019-04-28T07:34:33.995Z,12.30
2019-04-28T07:37:21.806Z,12.30
2019-04-28T07:39:50.262Z,12.30
2019-04-28T07:42:19.242Z,12.40
2019-04-28T07:44:47.761Z,12.40
2019-04-28T07:47:16.285Z,12.40
2019-04-28T07:49:44.747Z,12.40
2019-04-28T07:52:23.540Z,12.50
2019-04-28T07:54:51.990Z,12.50
2019-04-28T07:57:20.441Z,12.50
2019-04-28T07:59:49.073Z,12.60
2019-04-28T08:02:17.603Z,12.60
2019-04-28T08:04:46.418Z,12.60
2019-04-28T08:07:14.870Z,12.60
2019-04-28T08:09:43.326Z,12.60
2019-04-28T08:12:11.798Z,12.60
2019-04-28T08:14:40.258Z,12.60
2019-04-28T08:17:08.791Z,12.50
2019-04-28T08:19:37.254Z,12.50
2019-04-28T08:22:05.798Z,12.50
2019-04-28T08:24:34.299Z,12.50
2019-04-28T08:27:02.818Z,12.50
2019-04-28T08:29:31.278Z,12.50
2019-04-28T08:32:10.387Z,12.60
2019-04-28T08:34:38.846Z,12.60
2019-04-28T08:37:07.298Z,12.60
2019-04-28T08:39:35.766Z,12.60
2019-04-28T08:42:04.367Z,12.60
2019-04-28T08:44:32.825Z,12.60
2019-04-28T08:47:01.270Z,12.50
2019-04-28T08:49:29.763Z,12.60
2019-04-28T08:51:58.301Z,12.60
2019-04-28T08:54:26.821Z,12.60
2019-04-28T08:56:55.387Z,12.60
2019-04-28T08:59:23.928Z,12.70
2019-04-28T09:01:52.387Z,12.70
2019-04-28T09:04:20.917Z,12.70
2019-04-28T09:06:49.969Z,12.60
2019-04-28T09:09:21.741Z,12.60
2019-04-28T09:11:50.203Z,12.60
2019-04-28T09:14:18.670Z,12.60
2019-04-28T09:16:47.117Z,12.60
2019-04-28T09:19:15.574Z,12.60
2019-04-28T09:21:44.039Z,12.50
2019-04-28T09:24:12.523Z,12.50
2019-04-28T09:26:40.981Z,12.50
2019-04-28T09:29:09.506Z,12.50
2019-04-28T09:31:38.061Z,12.50
2019-04-28T09:34:06.591Z,12.50
2019-04-28T09:36:35.045Z,12.50
2019-04-28T09:39:05.646Z,12.50
2019-04-28T09:41:35.597Z,12.40
2019-04-28T09:44:17.659Z,12.40
2019-04-28T09:46:47.749Z,12.40
2019-04-28T09:49:16.208Z,12.40
2019-04-28T09:51:44.652Z,12.30
2019-04-28T09:54:13.118Z,12.30
2019-04-28T09:56:41.704Z,12.30
2019-04-28T09:59:10.245Z,12.30
2019-04-28T10:01:38.694Z,12.30
2019-04-28T10:04:07.323Z,12.30
2019-04-28T10:06:36.936Z,12.30
2019-04-28T10:09:08.887Z,12.30
2019-04-28T10:11:44.586Z,12.30
2019-04-28T10:14:13.148Z,12.30
2019-04-28T10:16:41.688Z,12.40
2019-04-28T10:19:11.174Z,12.40
2019-04-28T10:21:39.639Z,12.40
2019-04-28T10:24:08.107Z,12.40
2019-04-28T10:26:36.678Z,12.30
2019-04-28T10:29:05.140Z,12.30
2019-04-28T10:31:35.959Z,12.20
2019-04-28T10:34:05.631Z,12.10
2019-04-28T10:36:35.869Z,12.10
2019-04-28T10:39:25.524Z,12.00
2019-04-28T10:41:53.974Z,11.90
2019-04-28T10:44:23.188Z,11.80
2019-04-28T10:46:52.112Z,11.80
2019-04-28T10:49:21.107Z,11.80
2019-04-28T10:51:59.151Z,11.80
2019-04-28T10:54:20.278Z,11.80
2019-04-28T10:56:49.984Z,11.70
2019-04-28T10:59:19.994Z,11.70
2019-04-28T11:01:49.547Z,11.80
2019-04-28T11:04:37.122Z,11.80
2019-04-28T11:07:13.940Z,11.80
2019-04-28T11:09:45.574Z,11.80
2019-04-28T11:12:37.496Z,11.80
2019-04-28T11:15:10.910Z,11.80
2019-04-28T11:17:40.489Z,11.90
2019-04-28T11:20:11.575Z,11.90
2019-04-28T11:22:41.756Z,12.00
2019-04-28T11:25:11.606Z,12.00
2019-04-28T11:27:42.723Z,12.00
2019-04-28T11:30:13.265Z,12.00
2019-04-28T11:32:43.530Z,11.90
2019-04-28T11:35:21.658Z,11.90
2019-04-28T11:37:47.059Z,11.90
2019-04-28T11:40:15.611Z,11.90
2019-04-28T11:42:44.071Z,11.90
2019-04-28T11:45:12.595Z,11.90
2019-04-28T11:47:41.082Z,11.90
2019-04-28T11:50:10.077Z,11.80
2019-04-28T11:52:39.030Z,11.80
2019-04-28T11:55:08.944Z,11.70
2019-04-28T11:57:56.830Z,11.70
2019-04-28T12:00:32.862Z,11.70
2019-04-28T12:03:03.432Z,11.60
2019-04-28T12:05:40.182Z,11.60
2019-04-28T12:08:08.632Z,11.60
2019-04-28T12:10:55.050Z,11.60
2019-04-28T12:13:40.714Z,11.60
2019-04-28T12:16:18.794Z,11.60
2019-04-28T12:18:49.151Z,11.60
2019-04-28T12:21:30.543Z,11.60
2019-04-28T12:23:59.141Z,11.50
2019-04-28T12:26:28.778Z,11.50
2019-04-28T12:28:57.320Z,11.60
2019-04-28T12:31:25.780Z,11.50
2019-04-28T12:33:54.274Z,11.50
2019-04-28T12:36:22.795Z,11.50
2019-04-28T12:38:55.835Z,11.40
2019-04-28T12:41:25.404Z,11.40
2019-04-28T12:43:56.094Z,11.40
2019-04-28T12:46:26.998Z,11.40
2019-04-28T12:48:57.158Z,11.40
2019-04-28T12:51:25.618Z,11.50
2019-04-28T12:53:55.720Z,11.40
2019-04-28T12:56:24.313Z,11.40
2019-04-28T12:58:54.573Z,11.40
2019-04-28T13:01:27.456Z,11.40
2019-04-28T13:04:00.450Z,11.30
2019-04-28T13:06:29.048Z,11.30
2019-04-28T13:08:57.558Z,11.30
2019-04-28T13:11:26.080Z,11.30
2019-04-28T13:13:54.534Z,11.30
2019-04-28T13:16:22.990Z,11.30
2019-04-28T13:18:51.450Z,11.30
2019-04-28T13:21:19.933Z,11.30
2019-04-28T13:23:48.484Z,11.30
2019-04-28T13:26:17.012Z,11.20
2019-04-28T13:28:45.466Z,11.20
2019-04-28T13:31:13.936Z,11.20
2019-04-28T13:33:55.311Z,11.20
2019-04-28T13:36:14.926Z,11.20
2019-04-28T13:38:43.200Z,11.20
2019-04-28T13:41:11.659Z,11.20
2019-04-28T13:43:40.198Z,11.20
2019-04-28T13:46:08.787Z,11.10
2019-04-28T13:48:37.252Z,11.10
2019-04-28T13:51:05.793Z,11.10
2019-04-28T13:53:34.293Z,11.10
2019-04-28T13:56:03.100Z,11.00
2019-04-28T13:58:35.474Z,11.00
2019-04-28T14:01:17.470Z,11.00
2019-04-28T14:04:02.316Z,11.00
2019-04-28T14:06:32.659Z,11.00
2019-04-28T14:09:01.197Z,10.90
2019-04-28T14:11:29.723Z,10.90
2019-04-28T14:13:58.354Z,10.90
2019-04-28T14:16:26.906Z,10.90
2019-04-28T14:18:55.448Z,10.80
2019-04-28T14:21:23.903Z,10.80
2019-04-28T14:23:52.434Z,10.80
2019-04-28T14:26:20.916Z,10.80
2019-04-28T14:28:49.362Z,10.80
2019-04-28T14:31:17.888Z,10.80
2019-04-28T14:33:46.384Z,10.90
2019-04-28T14:36:14.888Z,10.80
2019-04-28T14:38:43.491Z,10.80
2019-04-28T14:41:12.335Z,10.80
2019-04-28T14:43:40.990Z,10.80
2019-04-28T14:46:09.690Z,10.80
2019-04-28T14:48:38.340Z,10.80
2019-04-28T14:51:06.875Z,10.80
2019-04-28T14:53:35.350Z,10.80
2019-04-28T14:56:03.812Z,10.80
2019-04-28T14:58:32.497Z,10.80
2019-04-28T15:01:02.658Z,10.80
2019-04-28T15:03:32.828Z,10.80
2019-04-28T15:06:19.162Z,10.80
2019-04-28T15:08:49.331Z,10.80
2019-04-28T15:11:22.263Z,10.80
2019-04-28T15:13:50.862Z,10.90
2019-04-28T15:16:19.350Z,10.90
2019-04-28T15:18:47.941Z,10.90
2019-04-28T15:21:16.660Z,10.90
2019-04-28T15:23:45.111Z,10.90
2019-04-28T15:26:13.610Z,10.90
2019-04-28T15:28:42.058Z,10.90
2019-04-28T15:31:10.508Z,10.90
2019-04-28T15:33:38.972Z,10.90
2019-04-28T15:36:07.772Z,10.90
2019-04-28T15:38:36.311Z,10.90
2019-04-28T15:41:05.116Z,11.00
2019-04-28T15:43:34.658Z,10.90
2019-04-28T15:46:03.432Z,11.00
2019-04-28T15:48:31.895Z,11.00
2019-04-28T15:51:00.370Z,11.00
2019-04-28T15:53:29.362Z,11.00
2019-04-28T15:56:02.378Z,11.00
2019-04-28T15:58:32.319Z,10.90
2019-04-28T16:01:01.318Z,10.90
2019-04-28T16:03:29.920Z,10.90
2019-04-28T16:06:00.088Z,10.90
2019-04-28T16:08:29.525Z,10.90
2019-04-28T16:10:58.063Z,10.90
2019-04-28T16:13:26.515Z,11.00
2019-04-28T16:15:55.007Z,10.90
2019-04-28T16:18:23.548Z,11.00
2019-04-28T16:20:52.649Z,11.00
2019-04-28T16:23:21.213Z,11.00
2019-04-28T16:25:49.781Z,11.00
2019-04-28T16:28:18.369Z,11.00
2019-04-28T16:30:47.449Z,11.00
2019-04-28T16:33:16.033Z,11.00
2019-04-28T16:35:44.622Z,11.00
2019-04-28T16:38:13.345Z,11.00
2019-04-28T16:40:42.790Z,11.00
2019-04-28T16:43:11.835Z,11.00
2019-04-28T16:45:40.379Z,11.00
2019-04-28T16:48:08.979Z,11.00
2019-04-28T16:50:38.057Z,11.00
2019-04-28T16:53:06.618Z,11.00
2019-04-28T16:55:45.936Z,11.00
2019-04-28T16:58:21.992Z,11.00
2019-04-28T17:00:55.061Z,11.00
2019-04-28T17:03:23.959Z,11.00
2019-04-28T17:05:52.499Z,11.00
2019-04-28T17:08:21.039Z,11.00
2019-04-28T17:10:49.742Z,10.90
2019-04-28T17:13:18.510Z,11.00
2019-04-28T17:15:47.265Z,10.90
2019-04-28T17:18:15.815Z,11.00
2019-04-28T17:20:44.349Z,11.00
2019-04-28T17:23:12.851Z,11.00
2019-04-28T17:25:41.306Z,11.00
2019-04-28T17:28:10.218Z,11.00
2019-04-28T17:30:38.865Z,11.00
2019-04-28T17:33:07.455Z,11.00
2019-04-28T17:35:35.929Z,11.00
2019-04-28T17:38:06.768Z,11.00
2019-04-28T17:40:34.927Z,11.00
2019-04-28T17:43:03.383Z,11.00
2019-04-28T17:45:31.855Z,11.00
2019-04-28T17:48:13.627Z,11.00
2019-04-28T17:50:45.217Z,11.00
2019-04-28T17:53:12.558Z,11.10
2019-04-28T17:55:41.079Z,11.00
2019-04-28T17:58:09.557Z,11.10
2019-04-28T18:00:45.626Z,11.00
2019-04-28T18:03:33.689Z,11.00
2019-04-28T18:06:16.773Z,11.10
2019-04-28T18:08:35.744Z,11.00
2019-04-28T18:11:04.334Z,11.00
2019-04-28T18:13:32.818Z,11.00
2019-04-28T18:16:02.913Z,11.00
2019-04-28T18:18:35.579Z,11.10
2019-04-28T18:21:04.187Z,11.10
2019-04-28T18:23:32.655Z,11.10
2019-04-28T18:26:01.133Z,11.10
2019-04-28T18:28:29.601Z,11.10
2019-04-28T18:31:02.263Z,11.10
2019-04-28T18:33:41.246Z,11.10
2019-04-28T18:36:14.056Z,11.10
2019-04-28T18:38:44.202Z,11.10
2019-04-28T18:41:30.378Z,11.10
2019-04-28T18:44:06.525Z,11.10
2019-04-28T18:46:34.989Z,11.10
2019-04-28T18:49:03.523Z,11.10
2019-04-28T18:51:31.989Z,11.10
2019-04-28T18:54:00.453Z,11.10
2019-04-28T18:56:28.927Z,11.10
2019-04-28T18:58:57.388Z,11.10
2019-04-28T19:01:39.222Z,11.20
2019-04-28T19:04:07.830Z,11.10
2019-04-28T19:06:36.300Z,11.20
2019-04-28T19:09:17.315Z,11.20
2019-04-28T19:11:47.567Z,11.20
2019-04-28T19:14:17.978Z,11.20
2019-04-28T19:17:00.041Z,11.20
2019-04-28T19:19:30.206Z,11.20
2019-04-28T19:21:58.772Z,11.10
2019-04-28T19:24:27.308Z,11.20
2019-04-28T19:26:56.041Z,11.20
2019-04-28T19:29:24.507Z,11.20
2019-04-28T19:31:53.040Z,11.20
2019-04-28T19:34:21.595Z,11.20
2019-04-28T19:36:50.094Z,11.20
2019-04-28T19:39:18.564Z,11.20
2019-04-28T19:41:47.185Z,11.20
2019-04-28T19:44:15.718Z,11.20
2019-04-28T19:46:44.175Z,11.20
2019-04-28T19:49:12.655Z,11.20
2019-04-28T19:51:41.114Z,11.20
2019-04-28T19:54:10.355Z,11.20
2019-04-28T19:56:52.251Z,11.20
2019-04-28T19:59:27.922Z,11.20
2019-04-28T20:01:56.755Z,11.20
2019-04-28T20:04:25.220Z,11.20
2019-04-28T20:06:53.715Z,11.20
2019-04-28T20:09:22.240Z,11.20
2019-04-28T20:11:50.692Z,11.20
2019-04-28T20:14:19.181Z,11.20
2019-04-28T20:16:47.643Z,11.20
2019-04-28T20:19:16.107Z,11.20
2019-04-28T20:21:44.584Z,11.20
2019-04-28T20:24:13.058Z,11.20
2019-04-28T20:26:41.581Z,11.20
2019-04-28T20:29:10.089Z,11.20
2019-04-28T20:31:38.560Z,11.20
2019-04-28T20:34:07.013Z,11.20
2019-04-28T20:36:37.119Z,11.20
2019-04-28T20:39:11.883Z,11.20
2019-04-28T20:41:40.354Z,11.20
2019-04-28T20:44:08.934Z,11.20
2019-04-28T20:46:37.457Z,11.20
2019-04-28T20:49:05.918Z,11.20
2019-04-28T20:51:34.389Z,11.20
2019-04-28T20:54:02.846Z,11.20
2019-04-28T20:56:31.313Z,11.20
2019-04-28T20:58:59.852Z,11.20
2019-04-28T21:01:28.415Z,11.20
2019-04-28T21:03:57.107Z,11.20
2019-04-28T21:06:25.615Z,11.20
2019-04-28T21:08:54.089Z,11.30
2019-04-28T21:11:22.538Z,11.20
2019-04-28T21:13:51.002Z,11.20
2019-04-28T21:16:19.513Z,11.20
2019-04-28T21:18:47.974Z,11.30
2019-04-28T21:21:16.422Z,11.30
2019-04-28T21:23:44.892Z,11.30
2019-04-28T21:26:13.358Z,11.30
2019-04-28T21:28:41.835Z,11.30
2019-04-28T21:31:10.296Z,11.30
2019-04-28T21:33:38.767Z,11.30
2019-04-28T21:36:07.223Z,11.30
2019-04-28T21:38:35.699Z,11.30
2019-04-28T21:41:04.162Z,11.30
2019-04-28T21:43:34.260Z,11.30
2019-04-28T21:46:10.198Z,11.30
2019-04-28T21:48:40.403Z,11.40
2019-04-28T21:51:11.636Z,11.40
2019-04-28T21:53:39.064Z,11.40
2019-04-28T21:56:07.625Z,11.40
2019-04-28T21:58:36.080Z,11.40
2019-04-28T22:01:05.481Z,11.40
2019-04-28T22:03:33.945Z,11.40
2019-04-28T22:06:02.423Z,11.40
2019-04-28T22:08:30.960Z,11.40
2019-04-28T22:10:59.449Z,11.40
2019-04-28T22:13:27.965Z,11.40
2019-04-28T22:15:56.427Z,11.40
2019-04-28T22:18:24.999Z,11.40
2019-04-28T22:20:53.459Z,11.40
2019-04-28T22:23:23.561Z,11.40
2019-04-28T22:25:52.075Z,11.40
2019-04-28T22:28:20.538Z,11.40
2019-04-28T22:30:49.007Z,11.40
2019-04-28T22:33:17.481Z,11.40
2019-04-28T22:35:45.967Z,11.50
2019-04-28T22:38:14.439Z,11.50
2019-04-28T22:40:42.888Z,11.40
2019-04-28T22:43:11.645Z,11.40
2019-04-28T22:45:40.111Z,11.40
2019-04-28T22:48:10.279Z,11.50
2019-04-28T22:50:41.982Z,11.50
2019-04-28T22:53:10.763Z,11.50
2019-04-28T22:55:40.872Z,11.50
2019-04-28T22:58:19.761Z,11.50
2019-04-28T23:00:50.145Z,11.50
2019-04-28T23:03:32.147Z,11.50
2019-04-28T23:06:00.722Z,11.50
2019-04-28T23:08:29.217Z,11.50
2019-04-28T23:10:57.675Z,11.40
2019-04-28T23:13:26.147Z,11.50
2019-04-28T23:15:54.624Z,11.50
2019-04-28T23:18:23.488Z,11.50
2019-04-28T23:20:59.878Z,11.50
2019-04-28T23:23:28.348Z,11.50
2019-04-28T23:25:56.999Z,11.50
2019-04-28T23:28:25.914Z,11.50
2019-04-28T23:30:54.438Z,11.50
2019-04-28T23:33:22.909Z,11.50
2019-04-28T23:35:51.482Z,11.50
2019-04-28T23:38:19.948Z,11.50
2019-04-28T23:40:50.032Z,11.50
2019-04-28T23:43:22.064Z,11.50
2019-04-28T23:45:50.524Z,11.50
2019-04-28T23:48:19.014Z,11.50
2019-04-28T23:50:55.126Z,11.50
2019-04-28T23:53:41.653Z,11.50
2019-04-28T23:56:10.117Z,11.50
2019-04-28T23:58:38.580Z,11.40
